Suzuka, Japan
Current Conditions -  °F | °C
As of 9:30 PM on Friday 31 Oct 2014 (Local Time) from RJGG Reporting Station
Rain Showers Rain Showers  
Wind Chill: 64°   Ceiling: 5000
Heat Index: 64°   Visibility: 6mi
Dew Point: 61°   Wind: 12mph
Humidity: 88%   Direction: 110°ESE
Pressure: 30.15"   Gusts: NA
Location:  34.88°N, 136.58°E
Report Text: RJGG 311230Z 11010KT 9999 -SHRA FEW007 SCT030 BKN050 18/16 Q1021 NOSIG
Loading
Personal Weather Stations






























Interactive Weather Map New forecast layout! Learn more

10-Day Weather Forecast

Advertisements
Track Severe Weather on mobile